Time;durP1;ratioP1;P1;durP2;ratioP2;P2;SDS_P1;SDS_P2;PMS_P1;PMS_P2;Temp;Humidity;BMP_temperature;BMP_pressure;BME280_temperature;BME280_humidity;BME280_pressure;Samples;Min_cycle;Max_cycle;Signal;HPM_P1;HPM_P2
2021/01/26 00:01:29;;;;;;;12.45;11.15;;;;;;;1.87;71.07;99825.06;10316019;28;20122;-71
2021/01/26 00:06:31;;;;;;;14.05;11.57;;;;;;;1.83;71.16;99833.16;10316401;28;20132;-70
2021/01/26 00:11:33;;;;;;;14.00;12.50;;;;;;;1.65;72.16;99817.44;10314906;28;20042;-70
2021/01/26 00:16:34;;;;;;;13.27;11.88;;;;;;;1.63;72.35;99829.78;10316067;28;20061;-70
2021/01/26 00:21:35;;;;;;;14.55;12.23;;;;;;;1.60;72.50;99819.44;10314261;28;20054;-71
2021/01/26 00:26:37;;;;;;;13.23;11.57;;;;;;;1.57;72.74;99809.09;10314517;28;20051;-71
2021/01/26 00:31:38;;;;;;;14.57;11.52;;;;;;;1.60;72.85;99816.81;10331031;28;20038;-70
2021/01/26 00:36:39;;;;;;;12.40;11.10;;;;;;;1.61;72.81;99826.38;10341806;28;20105;-71
2021/01/26 00:41:41;;;;;;;13.43;11.30;;;;;;;1.63;73.12;99821.91;10301660;23;20058;-69
2021/01/26 00:46:42;;;;;;;13.52;11.05;;;;;;;1.69;72.58;99807.63;10256302;28;20062;-69
2021/01/26 00:51:43;;;;;;;12.15;10.52;;;;;;;1.71;72.37;99825.00;10271242;28;20050;-70
2021/01/26 00:56:45;;;;;;;13.77;10.48;;;;;;;1.60;72.75;99822.06;10263969;28;20122;-70
2021/01/26 01:01:46;;;;;;;11.82;10.48;;;;;;;1.39;74.17;99800.38;10256905;28;20080;-72
2021/01/26 01:06:47;;;;;;;13.95;10.00;;;;;;;1.32;74.01;99768.38;10256832;28;20157;-69
2021/01/26 01:11:48;;;;;;;11.20;9.98;;;;;;;1.59;74.24;99805.47;10287774;28;20583;-68
2021/01/26 01:16:50;;;;;;;13.95;10.65;;;;;;;1.62;73.75;99812.31;10266971;28;20154;-69
2021/01/26 01:21:52;;;;;;;12.23;10.93;;;;;;;1.53;74.40;99794.44;10267863;28;20057;-69
2021/01/26 01:26:53;;;;;;;13.60;10.68;;;;;;;1.56;74.29;99805.63;10268413;28;20117;-69
2021/01/26 01:31:54;;;;;;;11.15;9.93;;;;;;;1.40;74.12;99795.06;10272389;28;20058;-69
2021/01/26 01:36:55;;;;;;;14.10;10.35;;;;;;;1.32;75.14;99794.59;10267877;28;20129;-69
2021/01/26 01:41:57;;;;;;;15.07;11.27;;;;;;;1.32;76.23;99802.47;10266294;28;20187;-69
2021/01/26 01:46:59;;;;;;;15.10;11.32;;;;;;;1.34;76.52;99811.09;10265810;28;20086;-70
2021/01/26 01:52:01;;;;;;;12.10;10.43;;;;;;;1.36;75.85;99796.13;10263328;28;20050;-68
2021/01/26 01:57:28;;;;;;;14.30;11.10;;;;;;;1.38;76.25;99809.16;10261262;28;20161;-69
2021/01/26 02:02:29;;;;;;;14.40;11.80;;;;;;;1.30;75.98;99796.44;10298360;28;20149;-69
2021/01/26 02:07:32;;;;;;;13.63;11.68;;;;;;;1.35;76.17;99806.69;10303504;28;20614;-70
2021/01/26 02:12:34;;;;;;;14.50;11.85;;;;;;;1.45;75.76;99812.34;10263834;28;20118;-69
2021/01/26 02:17:54;;;;;;;14.52;12.10;;;;;;;1.49;75.62;99816.50;10256677;28;20055;-69
2021/01/26 02:23:26;;;;;;;13.57;12.13;;;;;;;1.38;76.31;99812.66;10308557;28;20042;-69
2021/01/26 02:28:51;;;;;;;17.48;12.52;;;;;;;1.36;76.52;99811.84;10300221;28;20046;-68
2021/01/26 02:33:59;;;;;;;13.88;11.00;;;;;;;1.40;76.63;99821.28;10302752;28;20042;-70
2021/01/26 02:39:19;;;;;;;16.33;12.27;;;;;;;1.53;76.30;99825.91;10304054;28;20167;-69
2021/01/26 02:44:58;;;;;;;14.73;11.85;;;;;;;1.58;75.75;99827.38;10297634;28;20050;-70
2021/01/26 02:50:08;;;;;;;15.30;11.55;;;;;;;1.58;75.66;99805.56;10263754;28;20518;-69
2021/01/26 02:55:26;;;;;;;14.77;12.18;;;;;;;1.71;75.17;99804.00;10260756;28;20059;-69
2021/01/26 03:00:31;;;;;;;13.52;10.73;;;;;;;1.89;74.97;99827.59;10309067;28;20058;-69
2021/01/26 03:05:44;;;;;;;10.35;8.75;;;;;;;1.88;74.60;99818.03;10297013;28;20113;-69
2021/01/26 03:11:00;;;;;;;13.77;11.15;;;;;;;1.62;74.63;99808.88;10293451;28;20043;-71
2021/01/26 03:16:07;;;;;;;15.25;11.88;;;;;;;1.67;74.96;99822.63;10289400;28;20100;-69
2021/01/26 03:21:13;;;;;;;14.48;11.13;;;;;;;1.69;75.32;99821.59;10267124;28;20043;-70
2021/01/26 03:26:19;;;;;;;15.82;10.80;;;;;;;1.69;74.76;99813.72;10259286;28;20124;-69
2021/01/26 03:31:27;;;;;;;14.98;10.05;;;;;;;1.66;75.00;99827.00;10260055;28;20059;-69
2021/01/26 03:36:29;;;;;;;13.95;10.80;;;;;;;1.76;74.89;99838.72;10267133;28;20656;-68
2021/01/26 03:41:30;;;;;;;13.18;10.30;;;;;;;1.84;74.47;99843.59;10264073;28;20137;-69
2021/01/26 03:46:46;;;;;;;13.60;9.75;;;;;;;1.82;75.09;99839.31;10266604;28;20043;-69
2021/01/26 03:52:29;;;;;;;12.68;10.57;;;;;;;1.75;75.17;99842.28;10261184;28;20061;-69
2021/01/26 03:57:55;;;;;;;16.02;11.45;;;;;;;1.72;75.57;99838.97;10271009;28;20161;-69
2021/01/26 04:03:20;;;;;;;13.20;9.70;;;;;;;1.88;75.56;99844.28;10280656;28;20039;-68
2021/01/26 04:08:39;;;;;;;12.90;9.10;;;;;;;1.96;76.02;99844.72;10269109;28;20125;-69
2021/01/26 04:14:09;;;;;;;12.02;9.48;;;;;;;2.03;76.35;99851.38;10267982;28;20560;-70
2021/01/26 04:19:18;;;;;;;11.90;9.15;;;;;;;1.92;76.49;99832.69;10263983;28;20111;-69
2021/01/26 04:24:20;;;;;;;14.07;8.90;;;;;;;2.10;76.50;99846.66;10259931;28;20047;-69
2021/01/26 04:29:21;;;;;;;15.05;9.10;;;;;;;2.10;76.10;99847.50;10264569;28;20141;-69
2021/01/26 04:34:23;;;;;;;11.82;9.18;;;;;;;1.92;77.84;99838.81;10268889;28;20070;-68
2021/01/26 04:39:24;;;;;;;13.02;9.50;;;;;;;1.86;77.56;99830.38;10267052;28;20129;-68
2021/01/26 04:44:56;;;;;;;12.88;9.30;;;;;;;1.86;77.68;99833.88;10273613;28;20046;-70
2021/01/26 04:50:10;;;;;;;16.52;10.07;;;;;;;1.87;77.31;99824.22;10297605;28;20109;-69
2021/01/26 04:55:40;;;;;;;12.93;8.90;;;;;;;1.93;76.90;99835.22;10306650;28;20112;-68
2021/01/26 05:01:20;;;;;;;14.13;8.85;;;;;;;1.88;77.51;99841.66;10264331;28;20490;-70
2021/01/26 05:06:26;;;;;;;12.85;9.93;;;;;;;1.89;77.46;99853.84;10189994;28;20051;-68
2021/01/26 05:11:32;;;;;;;12.75;9.73;;;;;;;1.99;76.93;99841.94;10271273;28;20064;-69
2021/01/26 05:16:43;;;;;;;13.43;9.88;;;;;;;1.97;76.72;99846.44;10307104;28;21301;-68
2021/01/26 05:22:03;;;;;;;11.85;8.75;;;;;;;1.97;77.05;99846.44;10304935;28;20105;-69
2021/01/26 05:27:05;;;;;;;13.57;8.40;;;;;;;2.01;77.08;99837.50;10302923;28;20078;-68
2021/01/26 05:32:09;;;;;;;13.35;8.98;;;;;;;2.07;77.88;99849.44;10309352;28;20128;-68
2021/01/26 05:37:15;;;;;;;11.43;8.45;;;;;;;2.10;78.11;99851.88;10295327;28;20363;-68
2021/01/26 05:42:18;;;;;;;14.23;9.00;;;;;;;2.17;77.72;99849.81;10300193;28;20069;-69
2021/01/26 05:47:22;;;;;;;11.57;8.60;;;;;;;2.17;77.49;99865.56;10304399;28;20065;-68
2021/01/26 05:52:39;;;;;;;11.57;9.15;;;;;;;2.15;77.11;99856.91;10308174;28;20426;-68
2021/01/26 05:57:41;;;;;;;12.02;8.32;;;;;;;2.24;77.05;99853.81;10304470;28;20097;-68
2021/01/26 06:02:42;;;;;;;10.02;7.60;;;;;;;2.23;76.90;99866.09;10303314;28;20618;-68
2021/01/26 06:08:07;;;;;;;9.88;7.53;;;;;;;2.38;76.83;99867.06;10287125;28;20058;-69
2021/01/26 06:13:10;;;;;;;9.48;7.15;;;;;;;2.45;76.46;99889.47;10297565;28;20062;-68
2021/01/26 06:18:20;;;;;;;10.15;6.45;;;;;;;2.57;76.77;99889.75;10292841;28;20056;-68
2021/01/26 06:23:28;;;;;;;8.45;6.78;;;;;;;2.48;77.34;99889.28;10303726;28;20136;-68
2021/01/26 06:28:47;;;;;;;10.05;6.88;;;;;;;2.45;76.76;99873.69;10299544;28;20127;-69
2021/01/26 06:34:15;;;;;;;8.57;5.90;;;;;;;2.64;76.60;99904.25;10294919;28;20165;-69
2021/01/26 06:39:29;;;;;;;7.80;6.93;;;;;;;2.68;76.37;99890.03;10291633;28;20073;-69
2021/01/26 06:44:30;;;;;;;7.47;5.75;;;;;;;2.64;76.76;99907.75;10306759;28;20042;-68
2021/01/26 06:49:47;;;;;;;8.05;6.47;;;;;;;2.61;76.26;99888.63;10288301;28;20054;-69
2021/01/26 06:54:51;;;;;;;7.30;5.78;;;;;;;2.73;76.82;99903.78;10285713;28;20055;-69
2021/01/26 07:00:14;;;;;;;8.98;6.18;;;;;;;2.82;76.35;99924.31;10263071;28;20129;-68
2021/01/26 07:05:46;;;;;;;7.25;5.30;;;;;;;2.77;76.42;99930.75;10254122;28;20490;-69
2021/01/26 07:11:26;;;;;;;5.90;5.15;;;;;;;3.33;94.96;99925.94;10257483;28;20075;-69
2021/01/26 07:16:30;;;;;;;8.23;5.30;;;;;;;3.81;79.00;99950.41;10288648;28;20046;-69
2021/01/26 07:22:09;;;;;;;8.35;4.82;;;;;;;3.63;74.53;99943.56;10298590;28;20484;-69
2021/01/26 07:27:46;;;;;;;6.03;5.38;;;;;;;3.31;75.17;99943.59;10260969;28;20134;-70
2021/01/26 07:32:47;;;;;;;6.28;4.30;;;;;;;3.09;76.38;99957.94;10281650;28;20573;-68
2021/01/26 07:38:08;;;;;;;7.45;4.80;;;;;;;3.07;76.45;99969.47;10271704;28;20355;-68
2021/01/26 07:43:19;;;;;;;5.47;4.90;;;;;;;3.16;76.83;99985.59;10276783;28;20070;-69
2021/01/26 07:48:52;;;;;;;5.45;4.30;;;;;;;3.15;76.39;99989.16;10274031;28;20311;-68
2021/01/26 07:54:22;;;;;;;6.32;4.20;;;;;;;3.18;76.15;99978.47;10280325;28;20134;-70
2021/01/26 07:59:29;;;;;;;5.97;4.22;;;;;;;3.14;76.43;99997.97;10268975;28;20122;-69
2021/01/26 08:04:37;;;;;;;6.13;4.55;;;;;;;3.13;76.68;99982.28;10270998;28;20058;-68
2021/01/26 08:09:45;;;;;;;6.68;4.78;;;;;;;3.25;76.45;100005.28;10300843;28;20682;-68
2021/01/26 08:14:52;;;;;;;7.75;4.18;;;;;;;3.22;76.07;99994.09;10313194;28;20066;-67
2021/01/26 08:20:08;;;;;;;7.03;4.40;;;;;;;3.26;75.78;100014.88;10315071;28;20528;-67
2021/01/26 08:25:24;;;;;;;8.18;4.85;;;;;;;3.26;76.47;100001.75;10301698;28;20046;-68
2021/01/26 08:30:49;;;;;;;4.70;4.30;;;;;;;3.50;76.02;100015.34;10307408;28;20529;-67
2021/01/26 08:36:26;;;;;;;5.18;4.05;;;;;;;3.57;75.30;100025.53;10304361;28;20050;-67
2021/01/26 08:41:44;;;;;;;4.63;3.72;;;;;;;3.54;75.53;100030.03;10301690;28;20504;-67
2021/01/26 08:46:47;;;;;;;8.60;3.85;;;;;;;3.51;75.40;100045.13;10307959;28;20105;-68
2021/01/26 08:51:49;;;;;;;5.95;3.22;;;;;;;3.49;75.28;100045.22;10336526;28;20077;-67
2021/01/26 08:56:54;;;;;;;5.30;3.30;;;;;;;3.74;75.03;100054.41;10317958;28;20034;-68
2021/01/26 09:01:59;;;;;;;8.27;3.20;;;;;;;3.69;74.99;100054.66;10306745;28;20057;-66
2021/01/26 09:07:02;;;;;;;4.95;3.70;;;;;;;3.62;74.22;100053.28;10318139;28;20049;-67
2021/01/26 09:12:08;;;;;;;7.65;3.80;;;;;;;3.54;73.62;100047.59;10319719;28;20591;-67
2021/01/26 09:17:21;;;;;;;5.80;3.60;;;;;;;3.66;73.66;100075.91;10301941;28;20046;-66
2021/01/26 09:22:28;;;;;;;4.57;3.47;;;;;;;3.66;74.01;100069.75;10298322;28;20297;-66
2021/01/26 09:27:35;;;;;;;5.72;3.60;;;;;;;3.92;73.53;100067.47;10275328;28;20043;-66
2021/01/26 09:32:38;;;;;;;6.53;4.28;;;;;;;3.95;73.17;100083.09;10283957;28;20058;-66
2021/01/26 09:37:40;;;;;;;7.22;3.90;;;;;;;4.04;73.21;100082.59;10251941;28;20051;-65
2021/01/26 09:42:41;;;;;;;5.63;3.83;;;;;;;4.07;72.83;100067.47;10253458;28;20109;-67
2021/01/26 09:47:42;;;;;;;4.40;2.72;;;;;;;3.98;71.68;100062.72;10306785;28;20074;-66
2021/01/26 09:52:43;;;;;;;7.05;2.95;;;;;;;4.04;70.95;100072.91;10303055;28;20042;-65
2021/01/26 09:57:45;;;;;;;4.88;2.88;;;;;;;4.05;71.40;100097.47;10308651;28;20046;-65
2021/01/26 10:02:51;;;;;;;5.00;3.85;;;;;;;3.96;71.58;100092.69;10287293;28;20100;-65
2021/01/26 10:08:13;;;;;;;3.75;2.75;;;;;;;3.93;71.98;100106.88;10304251;28;20077;-65
2021/01/26 10:13:31;;;;;;;4.82;2.55;;;;;;;3.97;72.05;100124.22;10256372;28;20130;-65
2021/01/26 10:18:32;;;;;;;5.13;2.50;;;;;;;4.08;72.01;100128.91;10244970;28;20043;-64
2021/01/26 10:23:36;;;;;;;4.78;2.47;;;;;;;4.09;72.90;100143.78;10261933;28;20527;-67
2021/01/26 10:28:57;;;;;;;5.05;2.67;;;;;;;3.91;72.32;100105.28;10259255;28;20416;-66
2021/01/26 10:33:58;;;;;;;6.43;2.60;;;;;;;4.13;72.25;100139.16;10288682;28;20042;-65
2021/01/26 10:39:21;;;;;;;6.30;2.88;;;;;;;4.36;72.40;100156.34;10269022;28;20042;-66
2021/01/26 10:44:22;;;;;;;7.18;2.80;;;;;;;4.12;72.62;100159.41;10265021;28;20105;-65
2021/01/26 10:49:30;;;;;;;3.60;2.42;;;;;;;4.18;72.27;100158.22;10265149;28;20058;-66
2021/01/26 10:54:33;;;;;;;3.78;2.75;;;;;;;4.14;72.84;100157.53;10286308;28;20050;-65
2021/01/26 10:59:34;;;;;;;4.65;2.85;;;;;;;4.15;71.83;100168.94;10260287;28;20057;-65
2021/01/26 11:04:35;;;;;;;6.30;3.17;;;;;;;4.09;72.60;100167.47;10252312;28;20389;-67
2021/01/26 11:09:37;;;;;;;4.90;2.20;;;;;;;4.22;73.30;100175.56;10256231;28;20158;-65
2021/01/26 11:14:38;;;;;;;4.45;2.45;;;;;;;4.13;73.17;100165.53;10266059;28;20113;-66
2021/01/26 11:19:41;;;;;;;6.18;3.75;;;;;;;4.05;73.66;100182.63;10264970;28;20505;-66
2021/01/26 11:24:43;;;;;;;4.80;2.75;;;;;;;4.07;74.12;100177.25;10260248;28;20739;-65
2021/01/26 11:29:49;;;;;;;6.10;2.35;;;;;;;4.11;74.03;100176.13;10258541;28;20472;-64
2021/01/26 11:34:50;;;;;;;6.57;2.63;;;;;;;3.98;74.11;100172.47;10260708;28;20070;-65
2021/01/26 11:39:52;;;;;;;5.18;3.05;;;;;;;4.12;74.49;100180.50;10259591;28;20129;-66
2021/01/26 11:44:53;;;;;;;4.75;2.80;;;;;;;4.23;73.84;100182.53;10250360;28;20469;-65
2021/01/26 11:49:54;;;;;;;4.82;3.25;;;;;;;4.34;73.48;100180.16;10257610;28;21099;-65
2021/01/26 11:54:55;;;;;;;5.78;2.83;;;;;;;4.43;73.07;100205.16;10250072;28;20055;-65
2021/01/26 11:59:58;;;;;;;7.80;3.40;;;;;;;4.45;73.30;100216.44;10248468;28;21217;-65
2021/01/26 12:04:59;;;;;;;5.70;2.47;;;;;;;4.18;72.80;100190.69;10255082;28;20138;-66
2021/01/26 12:10:01;;;;;;;7.63;2.70;;;;;;;4.19;73.36;100197.66;10261758;28;20042;-65
2021/01/26 12:15:03;;;;;;;3.83;2.97;;;;;;;4.21;73.73;100221.28;10269810;28;20073;-65
2021/01/26 12:20:06;;;;;;;3.65;2.30;;;;;;;4.09;73.75;100212.28;10264278;28;20138;-68
2021/01/26 12:25:09;;;;;;;4.15;3.05;;;;;;;4.38;73.28;100217.72;10268647;28;20529;-65
2021/01/26 12:30:12;;;;;;;7.43;3.08;;;;;;;4.39;72.92;100219.44;10265177;28;20059;-67
2021/01/26 12:35:21;;;;;;;5.95;2.60;;;;;;;4.43;72.63;100206.00;10268153;28;20047;-65
2021/01/26 12:40:22;;;;;;;4.05;2.28;;;;;;;4.79;71.88;100206.66;10259149;28;20074;-66
2021/01/26 12:45:28;;;;;;;;;;;;;;;4.85;71.49;100215.97;10309740;28;20102;-66
2021/01/26 12:50:33;;;;;;;5.10;3.38;;;;;;;4.90;72.04;100217.41;10315012;28;19925;-66
2021/01/26 12:55:35;;;;;;;9.13;4.03;;;;;;;4.89;71.71;100218.34;10313483;28;20046;-67
2021/01/26 13:00:36;;;;;;;4.75;2.85;;;;;;;4.92;71.47;100218.22;10319920;28;20104;-66
2021/01/26 13:05:38;;;;;;;6.47;2.78;;;;;;;4.90;71.34;100220.06;10274697;28;20113;-66
2021/01/26 13:10:39;;;;;;;5.70;3.00;;;;;;;4.72;71.54;100200.03;10262958;28;20055;-67
2021/01/26 13:15:40;;;;;;;5.00;2.47;;;;;;;4.76;71.18;100223.50;10265735;28;20533;-67
2021/01/26 13:20:42;;;;;;;3.25;2.38;;;;;;;4.58;71.71;100238.56;10269610;28;20105;-67
2021/01/26 13:25:44;;;;;;;4.00;2.63;;;;;;;4.54;72.31;100229.13;10267745;28;20050;-66
2021/01/26 13:30:46;;;;;;;3.83;2.30;;;;;;;4.67;71.88;100233.69;10266175;28;20138;-65
2021/01/26 13:35:47;;;;;;;5.05;2.35;;;;;;;4.77;72.25;100235.75;10263852;28;20122;-65
2021/01/26 13:40:49;;;;;;;5.10;2.58;;;;;;;4.68;71.95;100248.59;10271994;28;20476;-66
2021/01/26 13:45:50;;;;;;;4.85;2.20;;;;;;;4.80;71.87;100252.34;10261552;28;20055;-66
2021/01/26 13:50:52;;;;;;;5.55;3.33;;;;;;;4.74;71.97;100261.44;10274550;28;20054;-65
2021/01/26 13:55:55;;;;;;;5.85;3.28;;;;;;;4.90;71.55;100266.69;10251247;28;20494;-66
2021/01/26 14:00:59;;;;;;;4.13;2.40;;;;;;;4.92;71.29;100280.66;10260540;28;20046;-66
2021/01/26 14:06:03;;;;;;;1.90;1.47;;;;;;;4.83;71.76;100287.28;10263718;28;20126;-66
2021/01/26 14:11:04;;;;;;;5.88;2.53;;;;;;;4.88;72.07;100289.66;10251130;28;20104;-66
2021/01/26 14:16:05;;;;;;;4.93;2.25;;;;;;;4.87;71.99;100285.34;10251160;28;20054;-66
2021/01/26 14:21:07;;;;;;;6.50;3.35;;;;;;;4.81;72.21;100297.06;10274307;28;20350;-66
2021/01/26 14:26:09;;;;;;;4.13;2.55;;;;;;;4.64;72.93;100294.50;10283572;28;20580;-66
2021/01/26 14:31:11;;;;;;;4.15;2.22;;;;;;;4.71;73.42;100309.06;10273053;28;20482;-63
2021/01/26 14:36:12;;;;;;;5.18;2.45;;;;;;;4.75;73.89;100294.78;10270898;28;20054;-64
2021/01/26 14:41:14;;;;;;;4.82;2.72;;;;;;;4.88;73.34;100311.63;10263235;28;20094;-64
2021/01/26 14:46:15;;;;;;;5.15;2.95;;;;;;;4.98;73.14;100311.09;10269143;28;20073;-65
2021/01/26 14:51:17;;;;;;;4.45;2.63;;;;;;;5.06;73.24;100319.44;10251871;28;20182;-65
2021/01/26 14:56:20;;;;;;;5.07;2.40;;;;;;;4.93;72.44;100325.41;10253749;28;20093;-65
2021/01/26 15:01:24;;;;;;;2.90;2.25;;;;;;;4.74;73.14;100322.94;10277876;28;20129;-65
2021/01/26 15:06:26;;;;;;;7.35;3.47;;;;;;;4.73;73.28;100346.78;10267236;28;20078;-65
2021/01/26 15:11:28;;;;;;;4.85;2.97;;;;;;;4.44;74.06;100349.19;10260466;28;20042;-65
2021/01/26 15:16:30;;;;;;;5.95;3.83;;;;;;;4.51;75.23;100353.19;10258260;28;20065;-66
2021/01/26 15:21:34;;;;;;;4.43;3.05;;;;;;;4.60;75.20;100349.22;10255369;28;20074;-66
2021/01/26 15:26:35;;;;;;;4.55;3.05;;;;;;;4.47;74.98;100349.00;10257979;28;20074;-64
2021/01/26 15:31:36;;;;;;;5.85;3.63;;;;;;;4.48;75.15;100349.88;10263575;28;20126;-65
2021/01/26 15:36:38;;;;;;;3.50;3.20;;;;;;;4.36;74.82;100351.38;10257771;28;20122;-65
2021/01/26 15:41:39;;;;;;;6.47;3.08;;;;;;;4.35;75.42;100360.22;10260291;28;20102;-66
2021/01/26 15:46:41;;;;;;;4.88;3.08;;;;;;;4.19;75.44;100342.59;10258864;28;20536;-66
2021/01/26 15:51:42;;;;;;;3.90;2.92;;;;;;;4.34;75.54;100382.22;10270926;28;20055;-66
2021/01/26 15:56:43;;;;;;;4.85;2.55;;;;;;;4.37;75.36;100395.25;10266154;28;20079;-65
2021/01/26 16:01:45;;;;;;;2.72;2.15;;;;;;;4.51;75.61;100412.97;10258773;28;20086;-65
2021/01/26 16:06:46;;;;;;;6.45;2.78;;;;;;;4.36;75.59;100418.13;10273251;28;20577;-65
2021/01/26 16:11:47;;;;;;;3.35;2.75;;;;;;;4.17;76.71;100430.53;10261711;28;20062;-65
2021/01/26 16:16:49;;;;;;;6.63;2.72;;;;;;;3.98;77.55;100420.06;10266805;28;20130;-65
2021/01/26 16:21:51;;;;;;;4.15;2.75;;;;;;;3.98;78.08;100435.88;10271059;28;20071;-65
2021/01/26 16:26:52;;;;;;;4.85;2.70;;;;;;;3.93;78.90;100443.16;10269130;28;20573;-65
2021/01/26 16:31:53;;;;;;;6.03;3.03;;;;;;;3.98;78.62;100449.91;10274307;28;20058;-66
2021/01/26 16:36:55;;;;;;;3.92;3.25;;;;;;;3.97;78.38;100450.00;10299162;28;20129;-65
2021/01/26 16:41:56;;;;;;;3.75;2.63;;;;;;;4.11;78.58;100458.03;10314320;28;20066;-66
2021/01/26 16:46:58;;;;;;;4.80;2.70;;;;;;;4.27;77.42;100462.56;10305429;28;20096;-65
2021/01/26 16:52:00;;;;;;;5.20;2.80;;;;;;;4.29;77.32;100460.69;10305558;28;20062;-66
2021/01/26 16:57:01;;;;;;;3.20;2.90;;;;;;;4.05;77.39;100458.34;10308440;28;20127;-67
2021/01/26 17:02:02;;;;;;;4.43;3.00;;;;;;;4.20;77.02;100460.22;10304776;28;20134;-67
2021/01/26 17:07:07;;;;;;;3.97;3.10;;;;;;;4.03;76.25;100445.25;10316932;28;20417;-68
2021/01/26 17:12:08;;;;;;;8.20;3.20;;;;;;;3.94;76.34;100452.78;10303920;28;20564;-67
2021/01/26 17:17:11;;;;;;;3.13;2.83;;;;;;;4.01;76.74;100468.19;10299707;28;20288;-68
2021/01/26 17:22:12;;;;;;;7.00;3.95;;;;;;;3.83;75.91;100469.13;10297869;28;20461;-67
2021/01/26 17:27:14;;;;;;;8.75;5.20;;;;;;;3.93;76.47;100474.78;10293046;28;20097;-68
2021/01/26 17:32:15;;;;;;;5.60;3.63;;;;;;;4.00;75.95;100477.03;10298321;28;20101;-70
2021/01/26 17:37:16;;;;;;;5.47;3.40;;;;;;;4.07;75.10;100485.50;10298324;28;20066;-66
2021/01/26 17:42:20;;;;;;;6.72;3.35;;;;;;;4.08;74.83;100481.91;10283446;28;20073;-67
2021/01/26 17:47:21;;;;;;;8.27;4.55;;;;;;;4.01;74.06;100477.91;10313671;23;20054;-71
2021/01/26 17:52:24;;;;;;;6.78;3.60;;;;;;;3.98;73.60;100488.56;10323526;28;20708;-70
2021/01/26 17:57:26;;;;;;;3.88;3.20;;;;;;;4.07;73.10;100483.69;10320102;28;20046;-69
2021/01/26 18:02:27;;;;;;;6.68;3.38;;;;;;;4.25;72.17;100481.91;10316928;28;20061;-70
2021/01/26 18:07:28;;;;;;;8.95;3.53;;;;;;;4.27;71.83;100488.91;10312730;28;20104;-69
2021/01/26 18:12:31;;;;;;;3.83;3.40;;;;;;;4.21;71.84;100475.09;10313489;28;20062;-69
2021/01/26 18:17:32;;;;;;;6.25;3.10;;;;;;;4.07;71.03;100490.75;10308179;28;20047;-70
2021/01/26 18:22:33;;;;;;;4.93;3.78;;;;;;;4.11;70.92;100488.81;10315040;28;20459;-71
2021/01/26 18:27:36;;;;;;;6.85;3.80;;;;;;;4.21;70.98;100496.16;10306820;28;20046;-70
2021/01/26 18:32:38;;;;;;;4.95;3.05;;;;;;;4.42;70.69;100510.06;10304076;28;20640;-70
2021/01/26 18:37:40;;;;;;;4.35;2.97;;;;;;;4.48;69.77;100503.63;10303634;28;20138;-70
2021/01/26 18:42:43;;;;;;;6.88;4.18;;;;;;;4.51;69.88;100502.63;10303975;28;20073;-69
2021/01/26 18:47:44;;;;;;;6.85;3.90;;;;;;;4.58;69.57;100498.75;10304738;28;20062;-71
2021/01/26 18:52:47;;;;;;;6.00;3.80;;;;;;;4.32;68.38;100492.16;10320884;28;20058;-72
2021/01/26 18:57:48;;;;;;;7.15;3.83;;;;;;;4.37;67.74;100490.16;10328510;28;20050;-71
2021/01/26 19:02:50;;;;;;;8.85;3.15;;;;;;;4.35;68.38;100494.63;10301234;28;20034;-72
2021/01/26 19:07:52;;;;;;;3.72;2.75;;;;;;;4.35;66.62;100497.25;10328724;28;20058;-72
2021/01/26 19:12:57;;;;;;;3.35;2.72;;;;;;;4.27;67.12;100505.56;10341206;28;20073;-71
2021/01/26 19:17:59;;;;;;;4.28;2.38;;;;;;;4.24;67.54;100501.28;10306164;28;21036;-71
2021/01/26 19:23:01;;;;;;;7.60;4.13;;;;;;;4.34;66.74;100500.81;10310493;28;20070;-71
2021/01/26 19:28:03;;;;;;;4.57;3.35;;;;;;;4.18;64.90;100490.22;10304588;28;20069;-71
2021/01/26 19:33:04;;;;;;;7.35;4.20;;;;;;;4.12;66.02;100490.53;10300887;28;20059;-70
2021/01/26 19:38:06;;;;;;;6.95;3.20;;;;;;;3.88;66.24;100499.53;10299544;28;20424;-69
2021/01/26 19:43:09;;;;;;;5.20;2.80;;;;;;;3.85;66.68;100499.69;10303873;28;20687;-71
2021/01/26 19:48:10;;;;;;;4.95;2.97;;;;;;;3.65;66.89;100505.09;10309158;28;22380;-71
2021/01/26 19:53:12;;;;;;;6.00;3.15;;;;;;;3.26;67.70;100495.47;10309995;28;20725;-71
2021/01/26 19:58:14;;;;;;;3.90;2.70;;;;;;;3.30;68.25;100502.31;10315164;28;20054;-70
2021/01/26 20:03:16;;;;;;;3.28;2.92;;;;;;;3.11;68.74;100500.53;10306686;28;20522;-72
2021/01/26 20:08:18;;;;;;;5.00;2.92;;;;;;;3.12;69.05;100507.50;10301770;28;20074;-74
2021/01/26 20:13:20;;;;;;;4.18;3.42;;;;;;;3.21;68.79;100524.63;10303079;28;20054;-71
2021/01/26 20:18:24;;;;;;;6.45;3.55;;;;;;;3.19;68.56;100516.81;10304612;28;20366;-70
2021/01/26 20:23:26;;;;;;;5.75;3.78;;;;;;;3.14;68.77;100518.81;10300262;28;20117;-72
2021/01/26 20:28:27;;;;;;;5.68;4.75;;;;;;;3.16;68.65;100514.31;10299226;28;20046;-72
2021/01/26 20:33:29;;;;;;;6.70;3.92;;;;;;;3.23;69.00;100516.66;10299620;28;20050;-72
2021/01/26 20:38:30;;;;;;;4.63;3.67;;;;;;;3.24;68.53;100531.53;10302024;28;21410;-72
2021/01/26 20:43:32;;;;;;;5.07;2.83;;;;;;;3.30;68.95;100523.38;10304829;28;20054;-73
2021/01/26 20:48:34;;;;;;;5.72;3.25;;;;;;;3.25;68.21;100525.38;10293641;28;20058;-74
2021/01/26 20:53:39;;;;;;;4.68;4.18;;;;;;;3.25;68.66;100517.47;10301922;28;20054;-72
2021/01/26 20:58:41;;;;;;;5.27;3.43;;;;;;;3.09;68.94;100523.44;10304099;28;20069;-72
2021/01/26 21:03:42;;;;;;;5.32;3.65;;;;;;;2.90;69.48;100515.50;10301908;28;20117;-71
2021/01/26 21:08:43;;;;;;;6.03;4.38;;;;;;;2.94;69.96;100524.09;10302484;28;20058;-72
2021/01/26 21:13:44;;;;;;;5.05;3.97;;;;;;;2.91;69.98;100524.25;10301746;28;20096;-70
2021/01/26 21:18:46;;;;;;;4.60;4.10;;;;;;;2.94;70.17;100532.88;10297477;28;20077;-73
2021/01/26 21:23:48;;;;;;;5.18;3.80;;;;;;;2.94;70.33;100530.22;10299813;28;20058;-72
2021/01/26 21:28:51;;;;;;;5.78;3.88;;;;;;;2.98;70.60;100515.16;10302707;28;20532;-73
2021/01/26 21:33:52;;;;;;;4.15;3.78;;;;;;;3.02;70.34;100522.00;10340380;28;20043;-71
2021/01/26 21:38:54;;;;;;;4.40;3.90;;;;;;;3.05;70.24;100519.22;10310001;28;20576;-72
2021/01/26 21:43:55;;;;;;;4.78;3.83;;;;;;;3.06;70.51;100506.91;10319624;28;20058;-73
2021/01/26 21:48:56;;;;;;;4.80;3.95;;;;;;;3.15;70.09;100510.00;10347484;28;20085;-73
2021/01/26 21:53:57;;;;;;;4.50;4.10;;;;;;;3.13;70.93;100510.97;10350275;28;20504;-73
2021/01/26 21:58:59;;;;;;;4.97;4.47;;;;;;;3.16;70.69;100521.38;10305121;28;20073;-71
2021/01/26 22:04:00;;;;;;;7.38;4.57;;;;;;;2.94;70.79;100498.69;10305365;28;20097;-72
2021/01/26 22:09:02;;;;;;;7.07;4.80;;;;;;;2.94;70.94;100500.44;10306812;28;20510;-74
2021/01/26 22:14:03;;;;;;;6.80;5.10;;;;;;;2.97;71.52;100518.69;10299951;28;20054;-73
2021/01/26 22:19:04;;;;;;;6.63;4.22;;;;;;;2.94;71.55;100506.56;10300816;28;20062;-72
2021/01/26 22:24:06;;;;;;;5.88;5.32;;;;;;;2.91;71.90;100511.09;10295230;28;20078;-71
2021/01/26 22:29:09;;;;;;;7.07;4.55;;;;;;;2.90;71.94;100525.16;10297644;28;20058;-71
2021/01/26 22:34:10;;;;;;;7.43;4.82;;;;;;;2.80;72.22;100520.31;10296581;28;20093;-70
2021/01/26 22:39:12;;;;;;;5.63;5.13;;;;;;;2.70;71.91;100502.38;10306498;28;20266;-69
2021/01/26 22:44:13;;;;;;;4.63;4.28;;;;;;;2.80;72.26;100506.31;10304061;28;20570;-68
2021/01/26 22:49:15;;;;;;;7.28;4.63;;;;;;;2.78;72.36;100510.78;10307887;28;20058;-71
2021/01/26 22:54:17;;;;;;;4.70;4.20;;;;;;;2.82;71.97;100497.44;10309779;28;20074;-70
2021/01/26 22:59:19;;;;;;;7.25;5.20;;;;;;;2.63;72.70;100480.78;10309268;28;20050;-71
2021/01/26 23:04:20;;;;;;;6.70;4.72;;;;;;;2.59;72.82;100480.03;10309345;28;20050;-70
2021/01/26 23:09:21;;;;;;;5.60;5.05;;;;;;;2.46;73.22;100492.00;10321668;28;20528;-70
2021/01/26 23:14:23;;;;;;;6.95;5.15;;;;;;;2.35;73.90;100489.84;10303702;28;20050;-70
2021/01/26 23:19:24;;;;;;;5.55;5.05;;;;;;;2.52;73.68;100494.34;10304485;28;20101;-70
2021/01/26 23:24:26;;;;;;;7.63;6.40;;;;;;;2.51;73.58;100489.16;10301896;28;20194;-71
2021/01/26 23:29:27;;;;;;;6.53;5.90;;;;;;;2.65;73.11;100503.41;10315755;28;20143;-69
2021/01/26 23:34:28;;;;;;;7.07;5.78;;;;;;;2.54;73.37;100487.28;10300956;28;20066;-69
2021/01/26 23:39:29;;;;;;;7.40;6.15;;;;;;;2.41;74.22;100489.56;10305418;28;20066;-70